MYGF METAR and TAF weather

Enter ICAO airport designator
Station Type Date Time Source
MYGF METAR 2019/12/09 22:00 UTC NOAA

MYGF 092200Z 16007KT 9999 SCT020 SCT250 26/21 A3009


Station Type Date Time Source
MYGF Decoded METAR 2019/12/09 22:00 UTC NOAA

Freeport, Grand Bahama, Bahamas, The (MYGF) 26-33N 078-42W 11M
Dec 09, 2019 - 05:00 PM EST / 2019.12.09 2200 UTC
Wind: from the SSE (160 degrees) at 8 MPH (7 KT):0
Visibility: greater than 7 mile(s):0
Sky conditions: partly cloudy
Temperature: 78 F (26 C)
Dew Point: 69 F (21 C)
Relative Humidity: 73%
Pressure (altimeter): 30.09 in. Hg (1018 hPa)
ob: MYGF 092200Z 16007KT 9999 SCT020 SCT250 26/21 A3009
cycle: 22

Station Type Date Time Source
MYGF TAF 2019/12/09 18:43 UTC NOAA

TAF MYGF 091640Z 0918/1018 13012KT 9999 SCT020

Example: see airport list